sensor_id;sensor_type;location;lat;lon;timestamp;P1;durP1;ratioP1;P2;durP2;ratioP2
6121;SDS011;3091;51.506;7.672;2023-12-20T00:01:41;29.70;;;27.70;;
6121;SDS011;3091;51.506;7.672;2023-12-20T00:04:07;31.97;;;29.63;;
6121;SDS011;3091;51.506;7.672;2023-12-20T00:06:33;33.53;;;30.80;;
6121;SDS011;3091;51.506;7.672;2023-12-20T00:08:59;29.03;;;26.97;;
6121;SDS011;3091;51.506;7.672;2023-12-20T00:11:25;31.97;;;29.70;;
6121;SDS011;3091;51.506;7.672;2023-12-20T00:13:51;29.47;;;27.47;;
6121;SDS011;3091;51.506;7.672;2023-12-20T00:16:18;31.17;;;28.27;;
6121;SDS011;3091;51.506;7.672;2023-12-20T00:18:44;31.77;;;29.30;;
6121;SDS011;3091;51.506;7.672;2023-12-20T00:21:11;34.03;;;31.53;;
6121;SDS011;3091;51.506;7.672;2023-12-20T00:23:37;32.03;;;29.90;;
6121;SDS011;3091;51.506;7.672;2023-12-20T00:26:03;30.30;;;28.20;;
6121;SDS011;3091;51.506;7.672;2023-12-20T00:28:31;29.80;;;27.80;;
6121;SDS011;3091;51.506;7.672;2023-12-20T00:30:57;30.63;;;28.53;;
6121;SDS011;3091;51.506;7.672;2023-12-20T00:33:23;32.77;;;30.57;;
6121;SDS011;3091;51.506;7.672;2023-12-20T00:35:52;31.17;;;29.07;;
6121;SDS011;3091;51.506;7.672;2023-12-20T00:38:18;33.73;;;31.03;;
6121;SDS011;3091;51.506;7.672;2023-12-20T00:40:44;33.67;;;31.10;;
6121;SDS011;3091;51.506;7.672;2023-12-20T00:43:10;31.43;;;29.23;;
6121;SDS011;3091;51.506;7.672;2023-12-20T00:45:36;29.73;;;27.73;;
6121;SDS011;3091;51.506;7.672;2023-12-20T00:48:02;30.93;;;28.33;;
6121;SDS011;3091;51.506;7.672;2023-12-20T00:50:28;30.90;;;28.70;;
6121;SDS011;3091;51.506;7.672;2023-12-20T00:52:54;30.23;;;28.13;;
6121;SDS011;3091;51.506;7.672;2023-12-20T00:55:21;32.30;;;29.87;;
6121;SDS011;3091;51.506;7.672;2023-12-20T00:57:49;29.73;;;27.73;;
6121;SDS011;3091;51.506;7.672;2023-12-20T01:00:15;30.80;;;28.70;;
6121;SDS011;3091;51.506;7.672;2023-12-20T01:02:41;31.47;;;29.27;;
6121;SDS011;3091;51.506;7.672;2023-12-20T01:05:07;34.53;;;31.83;;
6121;SDS011;3091;51.506;7.672;2023-12-20T01:07:34;31.10;;;29.00;;
6121;SDS011;3091;51.506;7.672;2023-12-20T01:10:00;31.33;;;29.03;;
6121;SDS011;3091;51.506;7.672;2023-12-20T01:12:26;30.27;;;28.17;;
6121;SDS011;3091;51.506;7.672;2023-12-20T01:14:52;31.80;;;29.43;;
6121;SDS011;3091;51.506;7.672;2023-12-20T01:17:18;35.10;;;32.50;;
6121;SDS011;3091;51.506;7.672;2023-12-20T01:19:44;35.53;;;32.87;;
6121;SDS011;3091;51.506;7.672;2023-12-20T01:22:10;36.03;;;33.00;;
6121;SDS011;3091;51.506;7.672;2023-12-20T01:24:36;34.73;;;32.33;;
6121;SDS011;3091;51.506;7.672;2023-12-20T01:27:02;34.37;;;31.83;;
6121;SDS011;3091;51.506;7.672;2023-12-20T01:29:28;33.00;;;30.80;;
6121;SDS011;3091;51.506;7.672;2023-12-20T01:31:54;32.47;;;30.27;;
6121;SDS011;3091;51.506;7.672;2023-12-20T01:34:20;31.97;;;29.93;;
6121;SDS011;3091;51.506;7.672;2023-12-20T01:36:49;32.70;;;30.60;;
6121;SDS011;3091;51.506;7.672;2023-12-20T01:39:16;34.37;;;31.87;;
6121;SDS011;3091;51.506;7.672;2023-12-20T01:41:42;32.87;;;30.77;;
6121;SDS011;3091;51.506;7.672;2023-12-20T01:44:08;30.70;;;28.80;;
6121;SDS011;3091;51.506;7.672;2023-12-20T01:46:34;31.00;;;29.00;;
6121;SDS011;3091;51.506;7.672;2023-12-20T01:49:00;30.60;;;28.70;;
6121;SDS011;3091;51.506;7.672;2023-12-20T01:51:26;27.80;;;26.10;;
6121;SDS011;3091;51.506;7.672;2023-12-20T01:53:53;26.80;;;25.00;;
6121;SDS011;3091;51.506;7.672;2023-12-20T01:56:20;25.13;;;23.60;;
6121;SDS011;3091;51.506;7.672;2023-12-20T01:58:47;22.87;;;21.47;;
6121;SDS011;3091;51.506;7.672;2023-12-20T02:01:13;23.40;;;21.93;;
6121;SDS011;3091;51.506;7.672;2023-12-20T02:03:42;23.13;;;21.73;;
6121;SDS011;3091;51.506;7.672;2023-12-20T02:06:08;22.57;;;21.20;;
6121;SDS011;3091;51.506;7.672;2023-12-20T02:08:35;21.70;;;20.40;;
6121;SDS011;3091;51.506;7.672;2023-12-20T02:11:01;21.63;;;20.33;;
6121;SDS011;3091;51.506;7.672;2023-12-20T02:13:27;21.30;;;20.10;;
6121;SDS011;3091;51.506;7.672;2023-12-20T02:15:54;20.93;;;19.73;;
6121;SDS011;3091;51.506;7.672;2023-12-20T02:18:20;21.50;;;20.10;;
6121;SDS011;3091;51.506;7.672;2023-12-20T02:20:46;21.00;;;19.70;;
6121;SDS011;3091;51.506;7.672;2023-12-20T02:23:12;20.80;;;19.50;;
6121;SDS011;3091;51.506;7.672;2023-12-20T02:25:38;19.80;;;18.60;;
6121;SDS011;3091;51.506;7.672;2023-12-20T02:28:05;20.13;;;18.93;;
6121;SDS011;3091;51.506;7.672;2023-12-20T02:30:31;19.73;;;18.63;;
6121;SDS011;3091;51.506;7.672;2023-12-20T02:33:05;20.20;;;18.90;;
6121;SDS011;3091;51.506;7.672;2023-12-20T02:35:33;19.33;;;18.13;;
6121;SDS011;3091;51.506;7.672;2023-12-20T02:37:59;20.77;;;19.50;;
6121;SDS011;3091;51.506;7.672;2023-12-20T02:40:25;20.67;;;19.47;;
6121;SDS011;3091;51.506;7.672;2023-12-20T02:42:51;20.10;;;18.80;;
6121;SDS011;3091;51.506;7.672;2023-12-20T02:45:17;19.83;;;18.73;;
6121;SDS011;3091;51.506;7.672;2023-12-20T02:47:43;20.00;;;18.83;;
6121;SDS011;3091;51.506;7.672;2023-12-20T02:50:09;19.30;;;18.20;;
6121;SDS011;3091;51.506;7.672;2023-12-20T02:52:35;20.07;;;18.87;;
6121;SDS011;3091;51.506;7.672;2023-12-20T02:55:01;20.43;;;19.23;;
6121;SDS011;3091;51.506;7.672;2023-12-20T02:57:27;19.93;;;18.67;;
6121;SDS011;3091;51.506;7.672;2023-12-20T02:59:53;20.27;;;18.97;;
6121;SDS011;3091;51.506;7.672;2023-12-20T03:02:19;19.43;;;18.33;;
6121;SDS011;3091;51.506;7.672;2023-12-20T03:04:45;19.00;;;18.00;;
6121;SDS011;3091;51.506;7.672;2023-12-20T03:07:11;19.77;;;18.67;;
6121;SDS011;3091;51.506;7.672;2023-12-20T03:09:37;22.20;;;20.63;;
6121;SDS011;3091;51.506;7.672;2023-12-20T03:12:03;20.23;;;19.00;;
6121;SDS011;3091;51.506;7.672;2023-12-20T03:14:29;19.57;;;18.47;;
6121;SDS011;3091;51.506;7.672;2023-12-20T03:16:55;20.40;;;19.10;;
6121;SDS011;3091;51.506;7.672;2023-12-20T03:19:21;20.97;;;19.87;;
6121;SDS011;3091;51.506;7.672;2023-12-20T03:21:47;18.80;;;17.80;;
6121;SDS011;3091;51.506;7.672;2023-12-20T03:24:13;18.20;;;17.30;;
6121;SDS011;3091;51.506;7.672;2023-12-20T03:26:39;19.97;;;18.87;;
6121;SDS011;3091;51.506;7.672;2023-12-20T03:29:05;18.53;;;17.60;;
6121;SDS011;3091;51.506;7.672;2023-12-20T03:31:31;18.27;;;17.37;;
6121;SDS011;3091;51.506;7.672;2023-12-20T03:33:57;18.90;;;18.00;;
6121;SDS011;3091;51.506;7.672;2023-12-20T03:36:23;18.40;;;17.33;;
6121;SDS011;3091;51.506;7.672;2023-12-20T03:38:49;17.77;;;16.97;;
6121;SDS011;3091;51.506;7.672;2023-12-20T03:41:15;20.37;;;19.27;;
6121;SDS011;3091;51.506;7.672;2023-12-20T03:43:41;17.23;;;16.43;;
6121;SDS011;3091;51.506;7.672;2023-12-20T03:46:08;18.00;;;17.10;;
6121;SDS011;3091;51.506;7.672;2023-12-20T03:48:34;18.63;;;17.63;;
6121;SDS011;3091;51.506;7.672;2023-12-20T03:51:00;18.43;;;17.37;;
6121;SDS011;3091;51.506;7.672;2023-12-20T03:53:26;18.27;;;17.30;;
6121;SDS011;3091;51.506;7.672;2023-12-20T03:55:52;20.50;;;18.83;;
6121;SDS011;3091;51.506;7.672;2023-12-20T03:58:18;19.17;;;17.60;;
6121;SDS011;3091;51.506;7.672;2023-12-20T04:00:47;32.17;;;18.03;;
6121;SDS011;3091;51.506;7.672;2023-12-20T04:03:13;18.03;;;17.10;;
6121;SDS011;3091;51.506;7.672;2023-12-20T04:05:42;17.33;;;16.43;;
6121;SDS011;3091;51.506;7.672;2023-12-20T04:08:08;16.97;;;16.17;;
6121;SDS011;3091;51.506;7.672;2023-12-20T04:10:35;18.53;;;17.57;;
6121;SDS011;3091;51.506;7.672;2023-12-20T04:13:02;17.83;;;17.00;;
6121;SDS011;3091;51.506;7.672;2023-12-20T04:15:28;16.67;;;15.87;;
6121;SDS011;3091;51.506;7.672;2023-12-20T04:17:54;19.73;;;18.33;;
6121;SDS011;3091;51.506;7.672;2023-12-20T04:20:20;19.00;;;17.70;;
6121;SDS011;3091;51.506;7.672;2023-12-20T04:22:46;18.77;;;17.77;;
6121;SDS011;3091;51.506;7.672;2023-12-20T04:25:12;19.97;;;18.63;;
6121;SDS011;3091;51.506;7.672;2023-12-20T04:27:38;17.20;;;16.30;;
6121;SDS011;3091;51.506;7.672;2023-12-20T04:30:04;18.80;;;17.80;;
6121;SDS011;3091;51.506;7.672;2023-12-20T04:32:30;17.97;;;16.87;;
6121;SDS011;3091;51.506;7.672;2023-12-20T04:34:56;18.40;;;17.37;;
6121;SDS011;3091;51.506;7.672;2023-12-20T04:37:22;16.87;;;15.97;;
6121;SDS011;3091;51.506;7.672;2023-12-20T04:39:56;16.67;;;15.87;;
6121;SDS011;3091;51.506;7.672;2023-12-20T04:42:22;16.03;;;15.23;;
6121;SDS011;3091;51.506;7.672;2023-12-20T04:44:48;16.00;;;15.20;;
6121;SDS011;3091;51.506;7.672;2023-12-20T04:47:14;16.83;;;15.80;;
6121;SDS011;3091;51.506;7.672;2023-12-20T04:49:40;44.27;;;17.47;;
6121;SDS011;3091;51.506;7.672;2023-12-20T04:52:06;16.80;;;15.90;;
6121;SDS011;3091;51.506;7.672;2023-12-20T04:54:32;18.83;;;17.50;;
6121;SDS011;3091;51.506;7.672;2023-12-20T04:56:58;16.13;;;15.23;;
6121;SDS011;3091;51.506;7.672;2023-12-20T04:59:24;16.70;;;15.80;;
6121;SDS011;3091;51.506;7.672;2023-12-20T05:01:50;18.40;;;17.40;;
6121;SDS011;3091;51.506;7.672;2023-12-20T05:04:16;19.00;;;17.43;;
6121;SDS011;3091;51.506;7.672;2023-12-20T05:06:42;17.97;;;16.67;;
6121;SDS011;3091;51.506;7.672;2023-12-20T05:09:08;17.53;;;16.27;;
6121;SDS011;3091;51.506;7.672;2023-12-20T05:11:34;16.67;;;15.87;;
6121;SDS011;3091;51.506;7.672;2023-12-20T05:14:00;18.33;;;17.23;;
6121;SDS011;3091;51.506;7.672;2023-12-20T05:16:29;18.40;;;17.37;;
6121;SDS011;3091;51.506;7.672;2023-12-20T05:18:55;18.10;;;17.10;;
6121;SDS011;3091;51.506;7.672;2023-12-20T05:21:21;18.93;;;17.73;;
6121;SDS011;3091;51.506;7.672;2023-12-20T05:23:47;17.63;;;16.73;;
6121;SDS011;3091;51.506;7.672;2023-12-20T05:26:13;16.73;;;15.90;;
6121;SDS011;3091;51.506;7.672;2023-12-20T05:28:39;19.60;;;18.40;;
6121;SDS011;3091;51.506;7.672;2023-12-20T05:31:05;17.40;;;16.40;;
6121;SDS011;3091;51.506;7.672;2023-12-20T05:33:31;17.57;;;16.57;;
6121;SDS011;3091;51.506;7.672;2023-12-20T05:36:00;17.60;;;16.60;;
6121;SDS011;3091;51.506;7.672;2023-12-20T05:38:26;17.73;;;16.73;;
6121;SDS011;3091;51.506;7.672;2023-12-20T05:40:52;18.90;;;17.70;;
6121;SDS011;3091;51.506;7.672;2023-12-20T05:43:18;17.70;;;16.70;;
6121;SDS011;3091;51.506;7.672;2023-12-20T05:45:44;20.00;;;18.80;;
6121;SDS011;3091;51.506;7.672;2023-12-20T05:48:10;17.43;;;16.40;;
6121;SDS011;3091;51.506;7.672;2023-12-20T05:50:36;17.77;;;16.83;;
6121;SDS011;3091;51.506;7.672;2023-12-20T05:53:02;17.40;;;16.50;;
6121;SDS011;3091;51.506;7.672;2023-12-20T05:55:28;20.60;;;18.60;;
6121;SDS011;3091;51.506;7.672;2023-12-20T05:57:54;17.70;;;16.73;;
6121;SDS011;3091;51.506;7.672;2023-12-20T06:00:23;17.97;;;16.87;;
6121;SDS011;3091;51.506;7.672;2023-12-20T06:02:50;20.57;;;18.97;;
6121;SDS011;3091;51.506;7.672;2023-12-20T06:05:16;17.90;;;16.80;;
6121;SDS011;3091;51.506;7.672;2023-12-20T06:07:42;16.17;;;15.37;;
6121;SDS011;3091;51.506;7.672;2023-12-20T06:10:08;17.07;;;16.17;;
6121;SDS011;3091;51.506;7.672;2023-12-20T06:12:34;19.60;;;18.60;;
6121;SDS011;3091;51.506;7.672;2023-12-20T06:15:01;18.67;;;17.67;;
6121;SDS011;3091;51.506;7.672;2023-12-20T06:17:27;17.43;;;16.40;;
6121;SDS011;3091;51.506;7.672;2023-12-20T06:19:55;17.27;;;16.27;;
6121;SDS011;3091;51.506;7.672;2023-12-20T06:22:21;18.20;;;17.10;;
6121;SDS011;3091;51.506;7.672;2023-12-20T06:24:47;18.37;;;17.33;;
6121;SDS011;3091;51.506;7.672;2023-12-20T06:27:13;17.43;;;16.53;;
6121;SDS011;3091;51.506;7.672;2023-12-20T06:29:39;17.60;;;16.60;;
6121;SDS011;3091;51.506;7.672;2023-12-20T06:32:06;17.30;;;16.40;;
6121;SDS011;3091;51.506;7.672;2023-12-20T06:34:32;17.13;;;16.23;;
6121;SDS011;3091;51.506;7.672;2023-12-20T06:36:58;17.87;;;16.97;;
6121;SDS011;3091;51.506;7.672;2023-12-20T06:39:24;20.37;;;18.87;;
6121;SDS011;3091;51.506;7.672;2023-12-20T06:41:50;20.17;;;18.07;;
6121;SDS011;3091;51.506;7.672;2023-12-20T06:44:16;18.97;;;17.70;;
6121;SDS011;3091;51.506;7.672;2023-12-20T06:46:45;20.57;;;18.90;;
6121;SDS011;3091;51.506;7.672;2023-12-20T06:49:11;19.77;;;18.47;;
6121;SDS011;3091;51.506;7.672;2023-12-20T06:51:37;16.43;;;15.63;;
6121;SDS011;3091;51.506;7.672;2023-12-20T06:54:05;20.70;;;19.30;;
6121;SDS011;3091;51.506;7.672;2023-12-20T06:56:32;17.90;;;17.00;;
6121;SDS011;3091;51.506;7.672;2023-12-20T06:58:58;17.50;;;16.27;;
6121;SDS011;3091;51.506;7.672;2023-12-20T07:01:24;19.53;;;18.13;;
6121;SDS011;3091;51.506;7.672;2023-12-20T07:03:50;18.67;;;17.63;;
6121;SDS011;3091;51.506;7.672;2023-12-20T07:06:19;18.73;;;17.53;;
6121;SDS011;3091;51.506;7.672;2023-12-20T07:08:45;17.20;;;16.20;;
6121;SDS011;3091;51.506;7.672;2023-12-20T07:11:11;20.27;;;18.93;;
6121;SDS011;3091;51.506;7.672;2023-12-20T07:13:37;18.40;;;17.50;;
6121;SDS011;3091;51.506;7.672;2023-12-20T07:16:04;23.53;;;17.90;;
6121;SDS011;3091;51.506;7.672;2023-12-20T07:18:30;17.40;;;16.50;;
6121;SDS011;3091;51.506;7.672;2023-12-20T07:20:56;18.83;;;17.83;;
6121;SDS011;3091;51.506;7.672;2023-12-20T07:23:22;17.90;;;16.83;;
6121;SDS011;3091;51.506;7.672;2023-12-20T07:25:48;17.20;;;16.40;;
6121;SDS011;3091;51.506;7.672;2023-12-20T07:28:14;21.37;;;20.17;;
6121;SDS011;3091;51.506;7.672;2023-12-20T07:30:40;19.90;;;18.57;;
6121;SDS011;3091;51.506;7.672;2023-12-20T07:33:06;19.40;;;18.30;;
6121;SDS011;3091;51.506;7.672;2023-12-20T07:35:36;17.40;;;16.60;;
6121;SDS011;3091;51.506;7.672;2023-12-20T07:38:02;21.03;;;19.37;;
6121;SDS011;3091;51.506;7.672;2023-12-20T07:40:28;19.27;;;18.17;;
6121;SDS011;3091;51.506;7.672;2023-12-20T07:42:54;18.67;;;17.47;;
6121;SDS011;3091;51.506;7.672;2023-12-20T07:45:20;19.57;;;18.50;;
6121;SDS011;3091;51.506;7.672;2023-12-20T07:47:46;17.90;;;16.70;;
6121;SDS011;3091;51.506;7.672;2023-12-20T07:50:12;18.63;;;17.17;;
6121;SDS011;3091;51.506;7.672;2023-12-20T07:52:38;27.27;;;18.73;;
6121;SDS011;3091;51.506;7.672;2023-12-20T07:55:04;19.20;;;18.10;;
6121;SDS011;3091;51.506;7.672;2023-12-20T07:57:30;17.83;;;16.93;;
6121;SDS011;3091;51.506;7.672;2023-12-20T07:59:56;19.20;;;18.20;;
6121;SDS011;3091;51.506;7.672;2023-12-20T08:02:22;17.97;;;17.07;;
6121;SDS011;3091;51.506;7.672;2023-12-20T08:04:48;18.17;;;17.20;;
6121;SDS011;3091;51.506;7.672;2023-12-20T08:07:14;19.63;;;18.23;;
6121;SDS011;3091;51.506;7.672;2023-12-20T08:09:40;19.73;;;18.50;;
6121;SDS011;3091;51.506;7.672;2023-12-20T08:12:08;18.17;;;17.17;;
6121;SDS011;3091;51.506;7.672;2023-12-20T08:14:34;19.80;;;18.70;;
6121;SDS011;3091;51.506;7.672;2023-12-20T08:17:00;17.50;;;16.60;;
6121;SDS011;3091;51.506;7.672;2023-12-20T08:19:26;18.43;;;17.53;;
6121;SDS011;3091;51.506;7.672;2023-12-20T08:21:52;20.20;;;19.30;;
6121;SDS011;3091;51.506;7.672;2023-12-20T08:24:18;20.67;;;19.47;;
6121;SDS011;3091;51.506;7.672;2023-12-20T08:26:44;20.30;;;19.40;;
6121;SDS011;3091;51.506;7.672;2023-12-20T08:29:12;21.37;;;20.20;;
6121;SDS011;3091;51.506;7.672;2023-12-20T08:31:38;22.00;;;20.80;;
6121;SDS011;3091;51.506;7.672;2023-12-20T08:34:04;31.63;;;21.50;;
6121;SDS011;3091;51.506;7.672;2023-12-20T08:36:30;27.03;;;22.13;;
6121;SDS011;3091;51.506;7.672;2023-12-20T08:38:56;21.33;;;20.33;;
6121;SDS011;3091;51.506;7.672;2023-12-20T08:41:22;21.27;;;20.10;;
6121;SDS011;3091;51.506;7.672;2023-12-20T08:43:48;21.93;;;20.80;;
6121;SDS011;3091;51.506;7.672;2023-12-20T08:46:14;21.60;;;20.50;;
6121;SDS011;3091;51.506;7.672;2023-12-20T08:48:40;21.40;;;20.40;;
6121;SDS011;3091;51.506;7.672;2023-12-20T08:51:06;21.13;;;20.10;;
6121;SDS011;3091;51.506;7.672;2023-12-20T08:53:33;21.23;;;20.20;;
6121;SDS011;3091;51.506;7.672;2023-12-20T08:55:59;20.97;;;19.97;;
6121;SDS011;3091;51.506;7.672;2023-12-20T08:58:27;21.17;;;20.07;;
6121;SDS011;3091;51.506;7.672;2023-12-20T09:00:53;20.87;;;19.77;;
6121;SDS011;3091;51.506;7.672;2023-12-20T09:03:19;31.80;;;21.60;;
6121;SDS011;3091;51.506;7.672;2023-12-20T09:05:44;19.70;;;18.80;;
6121;SDS011;3091;51.506;7.672;2023-12-20T09:08:10;22.90;;;21.30;;
6121;SDS011;3091;51.506;7.672;2023-12-20T09:10:37;20.90;;;19.93;;
6121;SDS011;3091;51.506;7.672;2023-12-20T09:13:03;22.63;;;21.30;;
6121;SDS011;3091;51.506;7.672;2023-12-20T09:15:29;20.77;;;19.63;;
6121;SDS011;3091;51.506;7.672;2023-12-20T09:17:55;21.70;;;20.20;;
6121;SDS011;3091;51.506;7.672;2023-12-20T09:20:21;19.70;;;18.90;;
6121;SDS011;3091;51.506;7.672;2023-12-20T09:22:48;20.10;;;19.00;;
6121;SDS011;3091;51.506;7.672;2023-12-20T09:25:14;21.90;;;20.70;;
6121;SDS011;3091;51.506;7.672;2023-12-20T09:27:42;20.93;;;19.93;;
6121;SDS011;3091;51.506;7.672;2023-12-20T09:30:09;22.27;;;20.90;;
6121;SDS011;3091;51.506;7.672;2023-12-20T09:32:35;20.33;;;19.33;;
6121;SDS011;3091;51.506;7.672;2023-12-20T09:35:01;20.90;;;19.83;;
6121;SDS011;3091;51.506;7.672;2023-12-20T09:37:27;22.07;;;20.67;;
6121;SDS011;3091;51.506;7.672;2023-12-20T09:39:54;20.03;;;19.23;;
6121;SDS011;3091;51.506;7.672;2023-12-20T09:42:24;20.30;;;19.33;;
6121;SDS011;3091;51.506;7.672;2023-12-20T09:44:54;20.27;;;19.27;;
6121;SDS011;3091;51.506;7.672;2023-12-20T09:47:20;21.07;;;20.07;;
6121;SDS011;3091;51.506;7.672;2023-12-20T09:49:50;19.87;;;19.07;;
6121;SDS011;3091;51.506;7.672;2023-12-20T09:52:16;20.90;;;19.90;;
6121;SDS011;3091;51.506;7.672;2023-12-20T09:54:43;20.90;;;19.80;;
6121;SDS011;3091;51.506;7.672;2023-12-20T09:57:09;24.90;;;23.20;;
6121;SDS011;3091;51.506;7.672;2023-12-20T09:59:35;19.27;;;18.37;;
6121;SDS011;3091;51.506;7.672;2023-12-20T10:02:01;20.60;;;19.50;;
6121;SDS011;3091;51.506;7.672;2023-12-20T10:04:29;21.43;;;20.33;;
6121;SDS011;3091;51.506;7.672;2023-12-20T10:07:01;18.97;;;18.07;;
6121;SDS011;3091;51.506;7.672;2023-12-20T10:09:29;21.13;;;19.50;;
6121;SDS011;3091;51.506;7.672;2023-12-20T10:11:57;20.67;;;19.67;;
6121;SDS011;3091;51.506;7.672;2023-12-20T10:14:23;21.67;;;19.23;;
6121;SDS011;3091;51.506;7.672;2023-12-20T10:16:49;20.80;;;19.60;;
6121;SDS011;3091;51.506;7.672;2023-12-20T10:19:19;21.00;;;19.90;;
6121;SDS011;3091;51.506;7.672;2023-12-20T10:21:45;20.67;;;19.67;;
6121;SDS011;3091;51.506;7.672;2023-12-20T10:24:16;20.10;;;19.10;;
6121;SDS011;3091;51.506;7.672;2023-12-20T10:26:42;18.97;;;18.13;;
6121;SDS011;3091;51.506;7.672;2023-12-20T10:29:08;21.73;;;20.73;;
6121;SDS011;3091;51.506;7.672;2023-12-20T10:31:35;20.00;;;19.10;;
6121;SDS011;3091;51.506;7.672;2023-12-20T10:34:03;20.50;;;19.60;;
6121;SDS011;3091;51.506;7.672;2023-12-20T10:36:30;21.53;;;20.53;;
6121;SDS011;3091;51.506;7.672;2023-12-20T10:38:56;23.37;;;21.77;;
6121;SDS011;3091;51.506;7.672;2023-12-20T10:41:29;20.33;;;19.47;;
6121;SDS011;3091;51.506;7.672;2023-12-20T10:43:57;22.50;;;21.17;;
6121;SDS011;3091;51.506;7.672;2023-12-20T10:46:24;21.33;;;20.27;;
6121;SDS011;3091;51.506;7.672;2023-12-20T10:48:53;21.50;;;20.40;;
6121;SDS011;3091;51.506;7.672;2023-12-20T10:51:19;23.17;;;22.07;;
6121;SDS011;3091;51.506;7.672;2023-12-20T10:53:47;22.23;;;21.20;;
6121;SDS011;3091;51.506;7.672;2023-12-20T10:56:15;20.40;;;19.50;;
6121;SDS011;3091;51.506;7.672;2023-12-20T10:58:42;21.60;;;20.47;;
6121;SDS011;3091;51.506;7.672;2023-12-20T11:01:16;22.27;;;20.77;;
6121;SDS011;3091;51.506;7.672;2023-12-20T11:03:49;21.17;;;20.13;;
6121;SDS011;3091;51.506;7.672;2023-12-20T11:14:24;21.10;;;20.00;;
6121;SDS011;3091;51.506;7.672;2023-12-20T11:16:50;19.57;;;18.57;;
6121;SDS011;3091;51.506;7.672;2023-12-20T11:19:30;18.97;;;18.07;;
6121;SDS011;3091;51.506;7.672;2023-12-20T11:21:56;20.73;;;19.83;;
6121;SDS011;3091;51.506;7.672;2023-12-20T11:24:22;21.37;;;20.40;;
6121;SDS011;3091;51.506;7.672;2023-12-20T11:26:49;21.40;;;20.50;;
6121;SDS011;3091;51.506;7.672;2023-12-20T11:29:32;21.73;;;20.73;;
6121;SDS011;3091;51.506;7.672;2023-12-20T11:31:59;20.83;;;19.93;;
6121;SDS011;3091;51.506;7.672;2023-12-20T11:34:32;21.07;;;20.17;;
6121;SDS011;3091;51.506;7.672;2023-12-20T11:36:59;23.43;;;21.87;;
6121;SDS011;3091;51.506;7.672;2023-12-20T11:39:26;22.00;;;20.90;;
6121;SDS011;3091;51.506;7.672;2023-12-20T11:41:54;20.10;;;19.20;;
6121;SDS011;3091;51.506;7.672;2023-12-20T11:44:21;22.13;;;20.73;;
6121;SDS011;3091;51.506;7.672;2023-12-20T11:46:47;21.73;;;20.63;;
6121;SDS011;3091;51.506;7.672;2023-12-20T11:49:13;22.00;;;20.80;;
6121;SDS011;3091;51.506;7.672;2023-12-20T11:51:42;21.00;;;20.10;;
6121;SDS011;3091;51.506;7.672;2023-12-20T11:54:08;22.00;;;20.70;;
6121;SDS011;3091;51.506;7.672;2023-12-20T11:56:36;22.37;;;20.87;;
6121;SDS011;3091;51.506;7.672;2023-12-20T11:59:02;21.10;;;20.20;;
6121;SDS011;3091;51.506;7.672;2023-12-20T12:01:28;23.83;;;22.27;;
6121;SDS011;3091;51.506;7.672;2023-12-20T12:04:02;20.53;;;19.20;;
6121;SDS011;3091;51.506;7.672;2023-12-20T12:06:28;23.30;;;22.20;;
6121;SDS011;3091;51.506;7.672;2023-12-20T12:08:54;33.17;;;31.40;;
6121;SDS011;3091;51.506;7.672;2023-12-20T12:11:20;53.40;;;50.70;;
6121;SDS011;3091;51.506;7.672;2023-12-20T12:13:47;57.83;;;55.03;;
6121;SDS011;3091;51.506;7.672;2023-12-20T12:16:13;67.70;;;64.40;;
6121;SDS011;3091;51.506;7.672;2023-12-20T12:18:42;83.30;;;79.30;;
6121;SDS011;3091;51.506;7.672;2023-12-20T12:21:11;92.43;;;87.63;;
6121;SDS011;3091;51.506;7.672;2023-12-20T12:23:44;100.67;;;96.07;;
6121;SDS011;3091;51.506;7.672;2023-12-20T12:26:10;101.97;;;97.20;;
6121;SDS011;3091;51.506;7.672;2023-12-20T12:28:36;93.37;;;88.23;;
6121;SDS011;3091;51.506;7.672;2023-12-20T12:31:02;102.60;;;97.90;;
6121;SDS011;3091;51.506;7.672;2023-12-20T12:33:29;106.30;;;101.50;;
6121;SDS011;3091;51.506;7.672;2023-12-20T12:35:55;106.00;;;101.00;;
6121;SDS011;3091;51.506;7.672;2023-12-20T12:38:21;110.70;;;105.60;;
6121;SDS011;3091;51.506;7.672;2023-12-20T12:40:47;104.70;;;99.80;;
6121;SDS011;3091;51.506;7.672;2023-12-20T12:43:13;100.33;;;95.63;;
6121;SDS011;3091;51.506;7.672;2023-12-20T12:45:39;107.43;;;102.43;;
6121;SDS011;3091;51.506;7.672;2023-12-20T12:48:05;104.87;;;99.97;;
6121;SDS011;3091;51.506;7.672;2023-12-20T12:50:31;104.17;;;99.37;;
6121;SDS011;3091;51.506;7.672;2023-12-20T12:52:58;103.03;;;98.30;;
6121;SDS011;3091;51.506;7.672;2023-12-20T12:55:24;107.73;;;102.63;;
6121;SDS011;3091;51.506;7.672;2023-12-20T12:57:50;107.90;;;102.70;;
6121;SDS011;3091;51.506;7.672;2023-12-20T13:00:16;102.20;;;97.40;;
6121;SDS011;3091;51.506;7.672;2023-12-20T13:02:42;102.23;;;97.53;;
6121;SDS011;3091;51.506;7.672;2023-12-20T13:05:08;98.67;;;93.70;;
6121;SDS011;3091;51.506;7.672;2023-12-20T13:07:34;92.17;;;87.63;;
6121;SDS011;3091;51.506;7.672;2023-12-20T13:10:00;86.63;;;82.63;;
6121;SDS011;3091;51.506;7.672;2023-12-20T13:12:26;74.83;;;71.00;;
6121;SDS011;3091;51.506;7.672;2023-12-20T13:14:52;69.57;;;65.57;;
6121;SDS011;3091;51.506;7.672;2023-12-20T13:17:19;64.60;;;61.40;;
6121;SDS011;3091;51.506;7.672;2023-12-20T13:19:45;56.07;;;53.13;;
6121;SDS011;3091;51.506;7.672;2023-12-20T13:22:11;47.03;;;44.63;;
6121;SDS011;3091;51.506;7.672;2023-12-20T13:24:37;31.27;;;28.63;;
6121;SDS011;3091;51.506;7.672;2023-12-20T13:27:03;29.57;;;27.87;;
6121;SDS011;3091;51.506;7.672;2023-12-20T13:29:29;29.93;;;27.70;;
6121;SDS011;3091;51.506;7.672;2023-12-20T13:31:55;30.23;;;28.43;;
6121;SDS011;3091;51.506;7.672;2023-12-20T13:34:21;29.10;;;27.57;;
6121;SDS011;3091;51.506;7.672;2023-12-20T13:36:47;29.40;;;27.80;;
6121;SDS011;3091;51.506;7.672;2023-12-20T13:39:15;26.60;;;25.20;;
6121;SDS011;3091;51.506;7.672;2023-12-20T13:41:41;27.67;;;26.37;;
6121;SDS011;3091;51.506;7.672;2023-12-20T13:44:07;26.80;;;25.40;;
6121;SDS011;3091;51.506;7.672;2023-12-20T13:46:33;26.43;;;25.20;;
6121;SDS011;3091;51.506;7.672;2023-12-20T13:48:59;25.90;;;24.70;;
6121;SDS011;3091;51.506;7.672;2023-12-20T13:51:26;27.10;;;25.60;;
6121;SDS011;3091;51.506;7.672;2023-12-20T13:53:53;26.83;;;25.40;;
6121;SDS011;3091;51.506;7.672;2023-12-20T13:56:19;26.13;;;24.73;;
6121;SDS011;3091;51.506;7.672;2023-12-20T13:58:45;25.63;;;24.23;;
6121;SDS011;3091;51.506;7.672;2023-12-20T14:01:12;25.03;;;23.73;;
6121;SDS011;3091;51.506;7.672;2023-12-20T14:03:38;25.87;;;24.53;;
6121;SDS011;3091;51.506;7.672;2023-12-20T14:06:04;27.60;;;25.50;;
6121;SDS011;3091;51.506;7.672;2023-12-20T14:08:30;24.57;;;23.13;;
6121;SDS011;3091;51.506;7.672;2023-12-20T14:10:56;28.13;;;26.50;;
6121;SDS011;3091;51.506;7.672;2023-12-20T14:13:22;23.63;;;22.33;;
6121;SDS011;3091;51.506;7.672;2023-12-20T14:15:48;22.23;;;21.13;;
6121;SDS011;3091;51.506;7.672;2023-12-20T14:18:14;23.03;;;21.73;;
6121;SDS011;3091;51.506;7.672;2023-12-20T14:20:40;23.23;;;21.90;;
6121;SDS011;3091;51.506;7.672;2023-12-20T14:23:07;23.50;;;22.30;;
6121;SDS011;3091;51.506;7.672;2023-12-20T14:25:37;76.10;;;26.53;;
6121;SDS011;3091;51.506;7.672;2023-12-20T14:28:03;22.23;;;21.10;;
6121;SDS011;3091;51.506;7.672;2023-12-20T14:30:29;22.17;;;20.97;;
6121;SDS011;3091;51.506;7.672;2023-12-20T14:32:56;21.40;;;20.20;;
6121;SDS011;3091;51.506;7.672;2023-12-20T14:35:22;22.83;;;21.70;;
6121;SDS011;3091;51.506;7.672;2023-12-20T14:37:47;22.57;;;21.27;;
6121;SDS011;3091;51.506;7.672;2023-12-20T14:40:15;21.63;;;20.53;;
6121;SDS011;3091;51.506;7.672;2023-12-20T14:42:41;23.47;;;22.33;;
6121;SDS011;3091;51.506;7.672;2023-12-20T14:45:08;20.40;;;19.50;;
6121;SDS011;3091;51.506;7.672;2023-12-20T14:47:34;21.90;;;20.80;;
6121;SDS011;3091;51.506;7.672;2023-12-20T14:50:03;23.47;;;22.23;;
6121;SDS011;3091;51.506;7.672;2023-12-20T14:52:30;22.77;;;21.57;;